createdAt,value
2023-04-03T00:01:01.693Z,58.01
2023-04-03T00:03:04.309Z,57.84
2023-04-03T00:05:07.737Z,58.08
2023-04-03T00:07:10.400Z,58.00
2023-04-03T00:09:12.938Z,57.98
2023-04-03T00:11:16.168Z,58.02
2023-04-03T00:13:18.765Z,58.03
2023-04-03T00:15:21.590Z,58.45
2023-04-03T00:17:25.752Z,58.29
2023-04-03T00:19:28.344Z,58.21
2023-04-03T00:21:31.543Z,58.21
2023-04-03T00:23:34.988Z,58.26
2023-04-03T00:25:38.219Z,58.23
2023-04-03T00:27:41.550Z,58.40
2023-04-03T00:29:44.084Z,58.57
2023-04-03T00:31:46.673Z,58.49
2023-04-03T00:33:50.661Z,58.84
2023-04-03T00:35:53.392Z,58.80
2023-04-03T00:37:57.260Z,58.87
2023-04-03T00:40:02.308Z,58.84
2023-04-03T00:42:05.007Z,58.47
2023-04-03T00:44:22.108Z,58.68
2023-04-03T00:46:24.700Z,58.63
2023-04-03T00:48:31.552Z,58.67
2023-04-03T00:50:37.881Z,58.73
2023-04-03T00:52:41.451Z,58.69
2023-04-03T00:54:48.349Z,58.60
2023-04-03T00:56:53.701Z,58.63
2023-04-03T00:59:00.745Z,58.56
2023-04-03T01:01:08.640Z,58.58
2023-04-03T01:03:11.229Z,58.38
2023-04-03T01:05:17.053Z,58.29
2023-04-03T01:07:24.728Z,58.45
2023-04-03T01:09:28.104Z,58.75
2023-04-03T01:11:30.696Z,58.61
2023-04-03T01:13:35.273Z,58.67
2023-04-03T01:15:37.868Z,58.50
2023-04-03T01:17:42.199Z,58.67
2023-04-03T01:19:56.852Z,58.65
2023-04-03T01:22:20.080Z,58.62
2023-04-03T01:24:34.097Z,58.99
2023-04-03T01:26:37.200Z,58.72
2023-04-03T01:28:40.111Z,58.91
2023-04-03T01:30:49.573Z,58.64
2023-04-03T01:32:53.504Z,58.11
2023-04-03T01:34:56.121Z,58.26
2023-04-03T01:36:58.774Z,58.54
2023-04-03T01:39:02.208Z,58.58
2023-04-03T01:41:04.787Z,58.59
2023-04-03T01:43:07.308Z,58.56
2023-04-03T01:45:11.102Z,58.72
2023-04-03T01:47:13.642Z,58.61
2023-04-03T01:49:17.540Z,58.91
2023-04-03T01:51:20.116Z,58.74
2023-04-03T01:53:22.716Z,58.89
2023-04-03T01:55:25.299Z,58.88
2023-04-03T01:57:27.988Z,59.08
2023-04-03T01:59:30.652Z,58.96
2023-04-03T02:01:33.431Z,58.77
2023-04-03T02:03:36.604Z,58.68
2023-04-03T02:05:40.678Z,58.95
2023-04-03T02:07:43.209Z,58.83
2023-04-03T02:09:45.786Z,58.91
2023-04-03T02:11:48.348Z,58.61
2023-04-03T02:13:51.096Z,58.76
2023-04-03T02:15:53.646Z,58.86
2023-04-03T02:17:56.239Z,59.04
2023-04-03T02:19:58.814Z,58.96
2023-04-03T02:22:03.024Z,58.99
2023-04-03T02:24:06.308Z,59.14
2023-04-03T02:26:11.260Z,59.24
2023-04-03T02:28:13.810Z,58.91
2023-04-03T02:30:16.569Z,59.11
2023-04-03T02:32:19.157Z,59.09
2023-04-03T02:34:21.866Z,59.13
2023-04-03T02:36:24.490Z,59.08
2023-04-03T02:38:28.498Z,59.02
2023-04-03T02:40:31.036Z,59.22
2023-04-03T02:42:34.168Z,58.94
2023-04-03T02:44:37.109Z,58.91
2023-04-03T02:46:39.668Z,59.06
2023-04-03T02:48:42.297Z,58.95
2023-04-03T02:50:44.868Z,59.05
2023-04-03T02:52:47.647Z,59.18
2023-04-03T02:54:51.540Z,59.00
2023-04-03T02:56:54.118Z,58.97
2023-04-03T02:58:56.791Z,59.03
2023-04-03T03:00:59.358Z,58.84
2023-04-03T03:03:02.025Z,58.76
2023-04-03T03:05:05.119Z,58.85
2023-04-03T03:07:07.670Z,58.69
2023-04-03T03:09:10.261Z,58.66
2023-04-03T03:11:14.418Z,58.85
2023-04-03T03:13:16.961Z,58.55
2023-04-03T03:15:20.380Z,58.61
2023-04-03T03:17:22.951Z,58.65
2023-04-03T03:19:25.670Z,58.81
2023-04-03T03:21:28.328Z,58.71
2023-04-03T03:23:33.098Z,58.51
2023-04-03T03:25:35.940Z,58.56
2023-04-03T03:27:39.954Z,58.33
2023-04-03T03:29:42.521Z,58.30
2023-04-03T03:31:45.516Z,58.19
2023-04-03T03:33:48.108Z,58.24
2023-04-03T03:35:50.847Z,58.17
2023-04-03T03:37:53.508Z,58.17
2023-04-03T03:39:58.890Z,58.11
2023-04-03T03:42:01.442Z,58.22
2023-04-03T03:44:05.584Z,58.27
2023-04-03T03:46:08.181Z,58.24
2023-04-03T03:48:10.740Z,58.32
2023-04-03T03:50:13.288Z,57.94
2023-04-03T03:52:16.466Z,58.18
2023-04-03T03:54:19.071Z,58.03
2023-04-03T03:56:21.635Z,58.24
2023-04-03T03:58:24.295Z,58.10
2023-04-03T04:00:28.208Z,58.09
2023-04-03T04:02:30.947Z,58.07
2023-04-03T04:04:33.566Z,58.16
2023-04-03T04:06:36.102Z,58.22
2023-04-03T04:08:38.688Z,58.22
2023-04-03T04:10:41.259Z,58.23
2023-04-03T04:12:43.843Z,58.24
2023-04-03T04:14:47.594Z,58.25
2023-04-03T04:16:51.660Z,58.25
2023-04-03T04:18:54.297Z,58.51
2023-04-03T04:20:56.859Z,58.64
2023-04-03T04:22:59.429Z,58.51
2023-04-03T04:25:04.855Z,58.45
2023-04-03T04:27:07.518Z,58.12
2023-04-03T04:29:10.866Z,58.21
2023-04-03T04:31:13.465Z,58.14
2023-04-03T04:33:17.423Z,57.60
2023-04-03T04:35:20.050Z,57.51
2023-04-03T04:37:22.613Z,57.47
2023-04-03T04:39:25.266Z,57.36
2023-04-03T04:41:27.856Z,57.27
2023-04-03T04:43:30.399Z,57.22
2023-04-03T04:45:32.986Z,56.59
2023-04-03T04:47:35.556Z,57.07
2023-04-03T04:49:39.520Z,57.27
2023-04-03T04:51:51.650Z,57.27
2023-04-03T04:53:56.169Z,57.42
2023-04-03T04:55:58.862Z,57.44
2023-04-03T04:58:01.422Z,57.45
2023-04-03T05:00:05.070Z,57.35
2023-04-03T05:02:07.658Z,57.33
2023-04-03T05:04:10.454Z,57.47
2023-04-03T05:06:14.357Z,57.28
2023-04-03T05:08:17.032Z,56.99
2023-04-03T05:10:19.684Z,57.25
2023-04-03T05:12:22.261Z,57.26
2023-04-03T05:14:25.118Z,57.39
2023-04-03T05:16:27.716Z,57.24
2023-04-03T05:18:30.284Z,57.20
2023-04-03T05:20:33.103Z,57.24
2023-04-03T05:22:36.995Z,57.04
2023-04-03T05:24:39.959Z,56.58
2023-04-03T05:26:42.531Z,56.55
2023-04-03T05:28:45.269Z,56.51
2023-04-03T05:30:54.224Z,56.36
2023-04-03T05:32:56.880Z,56.16
2023-04-03T05:35:01.211Z,55.86
2023-04-03T05:37:05.405Z,55.62
2023-04-03T05:39:09.697Z,55.63
2023-04-03T05:41:13.262Z,55.41
2023-04-03T05:43:15.949Z,55.53
2023-04-03T05:45:18.647Z,55.76
2023-04-03T05:47:21.461Z,55.55
2023-04-03T05:49:24.039Z,55.06
2023-04-03T05:51:30.857Z,55.17
2023-04-03T05:53:37.505Z,55.03
2023-04-03T05:55:41.442Z,55.03
2023-04-03T05:57:44.064Z,54.92
2023-04-03T05:59:48.431Z,54.85
2023-04-03T06:01:50.998Z,54.75
2023-04-03T06:03:53.859Z,54.73
2023-04-03T06:05:56.592Z,54.61
2023-04-03T06:07:59.145Z,54.51
2023-04-03T06:10:02.304Z,54.55
2023-04-03T06:12:06.296Z,54.52
2023-04-03T06:14:08.946Z,54.38
2023-04-03T06:16:16.242Z,54.27
2023-04-03T06:18:18.833Z,54.31
2023-04-03T06:20:21.505Z,54.00
2023-04-03T06:22:26.531Z,54.01
2023-04-03T06:24:29.711Z,53.99
2023-04-03T06:26:32.841Z,53.99
2023-04-03T06:28:36.747Z,53.64
2023-04-03T06:30:39.465Z,53.80
2023-04-03T06:32:42.387Z,53.54
2023-04-03T06:34:44.965Z,53.58
2023-04-03T06:36:47.874Z,53.72
2023-04-03T06:38:50.978Z,53.73
2023-04-03T06:40:54.056Z,53.68
2023-04-03T06:42:56.607Z,54.15
2023-04-03T06:45:01.279Z,54.02
2023-04-03T06:47:03.933Z,53.99
2023-04-03T06:49:08.427Z,54.33
2023-04-03T06:51:19.464Z,54.35
2023-04-03T06:53:22.382Z,54.08
2023-04-03T06:55:24.980Z,54.20
2023-04-03T06:57:27.793Z,54.29
2023-04-03T06:59:30.392Z,54.41
2023-04-03T07:01:34.487Z,54.36
2023-04-03T07:03:37.682Z,54.15
2023-04-03T07:05:40.662Z,54.37
2023-04-03T07:07:43.752Z,54.54
2023-04-03T07:09:47.760Z,54.47
2023-04-03T07:11:50.347Z,55.03
2023-04-03T07:13:52.983Z,54.98
2023-04-03T07:15:55.593Z,54.97
2023-04-03T07:17:59.575Z,54.97
2023-04-03T07:20:02.159Z,54.64
2023-04-03T07:22:04.728Z,54.60
2023-04-03T07:24:09.010Z,54.06
2023-04-03T07:26:14.071Z,54.36
2023-04-03T07:28:17.760Z,54.52
2023-04-03T07:30:20.307Z,54.06
2023-04-03T07:32:22.849Z,53.92
2023-04-03T07:34:26.750Z,54.29
2023-04-03T07:36:34.279Z,54.57
2023-04-03T07:38:38.147Z,54.69
2023-04-03T07:40:41.057Z,54.73
2023-04-03T07:42:43.582Z,54.81
2023-04-03T07:44:46.581Z,55.10
2023-04-03T07:46:49.418Z,55.17
2023-04-03T07:48:52.089Z,54.97
2023-04-03T07:50:57.932Z,54.27
2023-04-03T07:53:00.497Z,54.22
2023-04-03T07:55:03.127Z,54.59
2023-04-03T07:57:06.042Z,54.79
2023-04-03T07:59:08.772Z,54.93
2023-04-03T08:01:11.565Z,54.59
2023-04-03T08:03:15.023Z,54.83
2023-04-03T08:05:18.104Z,54.56
2023-04-03T08:07:22.546Z,54.16
2023-04-03T08:09:25.110Z,54.04
2023-04-03T08:11:28.267Z,54.27
2023-04-03T08:13:31.990Z,54.43
2023-04-03T08:15:34.868Z,54.50
2023-04-03T08:17:37.989Z,54.22
2023-04-03T08:19:41.620Z,53.77
2023-04-03T08:21:44.239Z,53.66
2023-04-03T08:23:50.402Z,54.06
2023-04-03T08:25:52.976Z,53.73
2023-04-03T08:27:55.500Z,52.93
2023-04-03T08:29:58.197Z,53.39
2023-04-03T08:32:00.795Z,53.84
2023-04-03T08:34:03.365Z,54.14
2023-04-03T08:36:07.390Z,53.93
2023-04-03T08:38:10.554Z,53.89
2023-04-03T08:40:17.879Z,53.41
2023-04-03T08:42:38.074Z,53.56
2023-04-03T08:44:47.806Z,53.46
2023-04-03T08:47:05.426Z,53.33
2023-04-03T08:49:16.715Z,53.38
2023-04-03T08:51:21.855Z,52.21
2023-04-03T08:53:29.472Z,53.13
2023-04-03T08:55:36.485Z,53.39
2023-04-03T08:57:42.922Z,53.21
2023-04-03T08:59:45.667Z,53.22
2023-04-03T09:01:49.129Z,53.60
2023-04-03T09:03:51.732Z,52.98
2023-04-03T09:05:59.506Z,53.31
2023-04-03T09:08:09.583Z,53.16
2023-04-03T09:10:14.387Z,53.06
2023-04-03T09:12:24.884Z,52.88
2023-04-03T09:14:35.186Z,52.99
2023-04-03T09:16:49.924Z,53.60
2023-04-03T09:18:59.699Z,53.56
2023-04-03T09:21:09.433Z,53.95
2023-04-03T09:23:21.460Z,54.20
2023-04-03T09:25:27.519Z,54.45
2023-04-03T09:27:31.747Z,54.07
2023-04-03T09:29:40.558Z,53.37
2023-04-03T09:31:46.316Z,53.34
2023-04-03T09:33:51.266Z,52.70
2023-04-03T09:35:53.837Z,52.22
2023-04-03T09:38:00.762Z,51.63
2023-04-03T09:40:03.857Z,51.72
2023-04-03T09:42:13.719Z,51.63
2023-04-03T09:44:25.832Z,50.55
2023-04-03T09:46:32.832Z,51.13
2023-04-03T09:48:35.571Z,51.32
2023-04-03T09:50:39.370Z,51.33
2023-04-03T09:52:43.554Z,51.94
2023-04-03T09:54:46.284Z,51.68
2023-04-03T09:56:52.529Z,52.47
2023-04-03T09:59:15.894Z,52.68
2023-04-03T10:01:33.133Z,51.65
2023-04-03T10:03:37.551Z,52.06
2023-04-03T10:05:41.233Z,52.41
2023-04-03T10:07:48.630Z,51.98
2023-04-03T10:09:58.968Z,51.80
2023-04-03T10:12:06.363Z,50.95
2023-04-03T10:14:18.750Z,51.14
2023-04-03T10:16:25.665Z,51.43
2023-04-03T10:18:41.235Z,51.42
2023-04-03T10:20:50.401Z,50.40
2023-04-03T10:23:02.206Z,50.41
2023-04-03T10:25:06.397Z,50.02
2023-04-03T10:27:15.481Z,50.12
2023-04-03T10:29:28.337Z,50.31
2023-04-03T10:31:39.183Z,50.16
2023-04-03T10:33:55.459Z,50.14
2023-04-03T10:36:10.372Z,50.48
2023-04-03T10:38:20.868Z,50.37
2023-04-03T10:40:33.863Z,49.91
2023-04-03T10:42:45.763Z,50.34
2023-04-03T10:44:54.355Z,48.73
2023-04-03T10:47:04.972Z,49.17
2023-04-03T10:49:21.779Z,49.50
2023-04-03T10:51:29.869Z,49.14
2023-04-03T10:53:40.978Z,49.24
2023-04-03T10:55:53.572Z,48.97
2023-04-03T10:57:58.241Z,49.23
2023-04-03T11:00:05.077Z,49.50
2023-04-03T11:02:16.220Z,49.08
2023-04-03T11:04:22.795Z,48.71
2023-04-03T11:06:28.714Z,48.38
2023-04-03T11:08:39.016Z,47.72
2023-04-03T11:10:44.530Z,47.83
2023-04-03T11:12:53.576Z,47.97
2023-04-03T11:14:58.663Z,48.45
2023-04-03T11:17:17.488Z,48.25
2023-04-03T11:19:25.251Z,48.46
2023-04-03T11:21:32.083Z,48.44
2023-04-03T11:23:49.035Z,48.22
2023-04-03T11:25:56.385Z,48.22
2023-04-03T11:28:00.560Z,48.06
2023-04-03T11:30:07.787Z,47.98
2023-04-03T11:32:23.071Z,48.25
2023-04-03T11:34:39.173Z,47.64
2023-04-03T11:36:46.686Z,47.92
2023-04-03T11:38:54.716Z,47.60
2023-04-03T11:40:58.672Z,47.52
2023-04-03T11:43:08.570Z,47.47
2023-04-03T11:45:29.754Z,47.07
2023-04-03T11:47:49.176Z,46.86
2023-04-03T11:50:02.055Z,47.13
2023-04-03T11:52:05.056Z,47.10
2023-04-03T11:54:46.608Z,47.15
2023-04-03T11:56:49.158Z,47.66
2023-04-03T11:59:26.024Z,47.08
2023-04-03T12:01:50.171Z,46.58
2023-04-03T12:04:10.058Z,46.58
2023-04-03T12:06:51.185Z,46.61
2023-04-03T12:08:56.530Z,46.72
2023-04-03T12:11:18.399Z,46.33
2023-04-03T12:13:21.093Z,46.51
2023-04-03T12:15:46.717Z,46.03
2023-04-03T12:17:49.565Z,45.79
2023-04-03T12:19:52.727Z,46.03
2023-04-03T12:22:25.621Z,46.23
2023-04-03T12:24:31.148Z,46.19
2023-04-03T12:26:48.220Z,46.44
2023-04-03T12:28:54.784Z,46.47
2023-04-03T12:30:57.776Z,46.81
2023-04-03T12:33:22.306Z,45.71
2023-04-03T12:35:32.411Z,46.42
2023-04-03T12:37:58.509Z,46.20
2023-04-03T12:40:12.621Z,46.16
2023-04-03T12:42:35.540Z,46.39
2023-04-03T12:44:46.961Z,46.05
2023-04-03T12:46:51.882Z,46.21
2023-04-03T12:48:56.400Z,46.36
2023-04-03T12:51:00.447Z,46.34
2023-04-03T12:53:06.272Z,46.67
2023-04-03T12:55:19.731Z,47.45
2023-04-03T12:57:25.967Z,46.56
2023-04-03T12:59:28.888Z,46.89
2023-04-03T13:01:31.428Z,46.38
2023-04-03T13:03:34.237Z,45.55
2023-04-03T13:05:37.404Z,44.97
2023-04-03T13:07:41.924Z,45.20
2023-04-03T13:09:44.634Z,45.09
2023-04-03T13:11:48.736Z,45.50
2023-04-03T13:14:00.470Z,45.14
2023-04-03T13:16:10.131Z,45.02
2023-04-03T13:18:24.899Z,45.31
2023-04-03T13:20:29.766Z,44.56
2023-04-03T13:22:40.184Z,44.48
2023-04-03T13:24:44.863Z,44.50
2023-04-03T13:26:48.930Z,44.41
2023-04-03T13:28:53.774Z,44.70
2023-04-03T13:31:01.224Z,45.35
2023-04-03T13:33:06.765Z,44.89
2023-04-03T13:35:35.002Z,44.59
2023-04-03T13:37:37.631Z,44.59
2023-04-03T13:39:41.712Z,44.83
2023-04-03T13:41:46.990Z,45.18
2023-04-03T13:43:53.629Z,44.96
2023-04-03T13:46:07.450Z,44.61
2023-04-03T13:48:23.102Z,45.21
2023-04-03T13:50:29.928Z,44.94
2023-04-03T13:52:36.705Z,44.68
2023-04-03T13:54:41.132Z,45.12
2023-04-03T13:56:43.812Z,45.40
2023-04-03T13:59:04.409Z,45.77
2023-04-03T14:01:13.919Z,45.47
2023-04-03T14:03:23.507Z,45.63
2023-04-03T14:05:27.606Z,45.47
2023-04-03T14:07:31.925Z,45.19
2023-04-03T14:09:34.509Z,44.93
2023-04-03T14:11:37.351Z,44.76
2023-04-03T14:13:39.926Z,45.55
2023-04-03T14:15:48.324Z,44.66
2023-04-03T14:17:52.429Z,44.90
2023-04-03T14:19:56.510Z,45.51
2023-04-03T14:21:59.796Z,45.23
2023-04-03T14:24:02.454Z,45.32
2023-04-03T14:26:05.042Z,44.79
2023-04-03T14:28:17.977Z,44.85
2023-04-03T14:30:23.135Z,44.62
2023-04-03T14:32:28.726Z,45.19
2023-04-03T14:34:31.506Z,45.41
2023-04-03T14:36:34.409Z,45.07
2023-04-03T14:38:37.061Z,44.68
2023-04-03T14:40:39.730Z,44.31
2023-04-03T14:42:42.672Z,44.24
2023-04-03T14:44:45.757Z,44.07
2023-04-03T14:46:56.309Z,44.42
2023-04-03T14:49:01.245Z,44.68
2023-04-03T14:51:06.006Z,44.83
2023-04-03T14:53:09.000Z,44.77
2023-04-03T14:55:13.435Z,44.30
2023-04-03T14:57:17.255Z,44.22
2023-04-03T14:59:21.055Z,43.76
2023-04-03T15:01:24.145Z,43.84
2023-04-03T15:03:26.859Z,43.64
2023-04-03T15:05:30.827Z,43.17
2023-04-03T15:07:37.024Z,43.09
2023-04-03T15:09:39.607Z,43.51
2023-04-03T15:11:42.127Z,43.23
2023-04-03T15:13:45.337Z,43.21
2023-04-03T15:15:48.523Z,43.13
2023-04-03T15:17:55.913Z,42.97
2023-04-03T15:19:58.691Z,43.21
2023-04-03T15:22:02.546Z,43.02
2023-04-03T15:24:05.282Z,42.98
2023-04-03T15:26:08.279Z,42.78
2023-04-03T15:28:11.419Z,43.08
2023-04-03T15:30:17.687Z,43.40
2023-04-03T15:32:20.515Z,43.73
2023-04-03T15:34:23.380Z,42.96
2023-04-03T15:36:34.008Z,43.63
2023-04-03T15:38:39.066Z,43.54
2023-04-03T15:40:42.026Z,43.38
2023-04-03T15:42:44.592Z,43.52
2023-04-03T15:44:47.161Z,42.59
2023-04-03T15:46:52.277Z,42.67
2023-04-03T15:48:55.013Z,42.55
2023-04-03T15:50:59.079Z,42.82
2023-04-03T15:53:02.891Z,42.78
2023-04-03T15:55:07.927Z,42.31
2023-04-03T15:57:10.543Z,42.71
2023-04-03T15:59:13.192Z,42.84
2023-04-03T16:01:15.942Z,42.67
2023-04-03T16:03:21.332Z,42.50
2023-04-03T16:05:24.355Z,41.53
2023-04-03T16:07:27.045Z,41.76
2023-04-03T16:09:29.650Z,41.89
2023-04-03T16:11:33.571Z,42.27
2023-04-03T16:13:36.231Z,42.14
2023-04-03T16:15:38.929Z,42.24
2023-04-03T16:17:42.753Z,41.71
2023-04-03T16:19:45.343Z,41.26
2023-04-03T16:21:47.936Z,41.26
2023-04-03T16:23:50.515Z,41.98
2023-04-03T16:25:53.147Z,41.46
2023-04-03T16:27:57.046Z,41.47
2023-04-03T16:30:00.033Z,41.16
2023-04-03T16:32:04.089Z,41.13
2023-04-03T16:34:06.664Z,40.59
2023-04-03T16:36:09.512Z,40.57
2023-04-03T16:38:12.158Z,40.42
2023-04-03T16:40:14.788Z,40.33
2023-04-03T16:42:17.541Z,41.02
2023-04-03T16:44:21.422Z,41.25
2023-04-03T16:46:24.200Z,40.79
2023-04-03T16:48:27.102Z,40.93
2023-04-03T16:50:31.988Z,41.09
2023-04-03T16:52:35.016Z,41.14
2023-04-03T16:54:37.640Z,41.01
2023-04-03T16:56:40.171Z,41.26
2023-04-03T16:58:42.692Z,41.37
2023-04-03T17:00:48.176Z,41.08
2023-04-03T17:02:51.009Z,40.65
2023-04-03T17:04:53.754Z,40.93
2023-04-03T17:06:57.035Z,41.16
2023-04-03T17:08:59.635Z,41.49
2023-04-03T17:11:02.260Z,41.50
2023-04-03T17:13:05.314Z,41.56
2023-04-03T17:15:08.776Z,41.43
2023-04-03T17:17:12.891Z,41.55
2023-04-03T17:19:17.339Z,41.73
2023-04-03T17:21:19.922Z,41.84
2023-04-03T17:23:22.469Z,41.80
2023-04-03T17:25:25.027Z,41.84
2023-04-03T17:27:27.693Z,41.56
2023-04-03T17:29:30.408Z,41.35
2023-04-03T17:31:33.179Z,40.88
2023-04-03T17:33:37.179Z,41.15
2023-04-03T17:35:39.990Z,41.23
2023-04-03T17:37:42.752Z,41.38
2023-04-03T17:39:46.847Z,41.63
2023-04-03T17:41:49.622Z,42.04
2023-04-03T17:43:52.203Z,42.41
2023-04-03T17:45:56.012Z,42.14
2023-04-03T17:47:58.654Z,42.18
2023-04-03T17:50:02.597Z,41.87
2023-04-03T17:52:05.248Z,41.82
2023-04-03T17:54:07.905Z,41.58
2023-04-03T17:56:12.679Z,41.31
2023-04-03T17:58:15.272Z,41.50
2023-04-03T18:00:18.987Z,41.55
2023-04-03T18:02:21.599Z,41.88
2023-04-03T18:04:25.207Z,41.80
2023-04-03T18:06:32.672Z,41.89
2023-04-03T18:08:37.601Z,41.89
2023-04-03T18:10:40.432Z,41.68
2023-04-03T18:12:43.454Z,41.86
2023-04-03T18:14:46.850Z,42.03
2023-04-03T18:16:49.705Z,41.82
2023-04-03T18:19:02.487Z,41.79
2023-04-03T18:21:16.090Z,41.86
2023-04-03T18:23:20.061Z,41.99
2023-04-03T18:25:22.687Z,42.02
2023-04-03T18:27:28.044Z,42.10
2023-04-03T18:29:33.718Z,42.40
2023-04-03T18:31:38.156Z,42.10
2023-04-03T18:33:40.812Z,42.31
2023-04-03T18:35:43.568Z,42.27
2023-04-03T18:37:46.420Z,42.39
2023-04-03T18:39:50.305Z,42.35
2023-04-03T18:41:53.532Z,42.05
2023-04-03T18:43:57.116Z,42.47
2023-04-03T18:45:59.691Z,42.42
2023-04-03T18:48:02.552Z,42.35
2023-04-03T18:50:06.676Z,42.88
2023-04-03T18:52:10.253Z,42.95
2023-04-03T18:54:12.856Z,42.82
2023-04-03T18:56:16.792Z,42.87
2023-04-03T18:58:19.341Z,42.95
2023-04-03T19:00:22.022Z,42.77
2023-04-03T19:02:25.984Z,42.99
2023-04-03T19:04:29.844Z,43.14
2023-04-03T19:06:33.858Z,43.18
2023-04-03T19:08:37.242Z,43.07
2023-04-03T19:10:39.835Z,43.25
2023-04-03T19:12:44.246Z,43.39
2023-04-03T19:14:46.791Z,43.13
2023-04-03T19:16:49.377Z,43.13
2023-04-03T19:18:52.201Z,43.47
2023-04-03T19:20:56.717Z,43.46
2023-04-03T19:22:59.347Z,43.53
2023-04-03T19:25:01.910Z,43.65
2023-04-03T19:27:04.658Z,43.79
2023-04-03T19:29:08.706Z,44.10
2023-04-03T19:31:15.467Z,44.05
2023-04-03T19:33:18.156Z,44.21
2023-04-03T19:35:20.810Z,44.40
2023-04-03T19:37:24.831Z,44.40
2023-04-03T19:39:29.023Z,44.69
2023-04-03T19:41:34.643Z,45.04
2023-04-03T19:43:37.330Z,44.99
2023-04-03T19:45:42.066Z,45.01
2023-04-03T19:47:45.125Z,45.12
2023-04-03T19:49:49.778Z,45.47
2023-04-03T19:51:53.335Z,45.66
2023-04-03T19:53:55.908Z,45.81
2023-04-03T19:56:01.367Z,46.03
2023-04-03T19:58:04.504Z,46.12
2023-04-03T20:00:08.458Z,46.14
2023-04-03T20:02:12.572Z,46.25
2023-04-03T20:04:15.162Z,46.47
2023-04-03T20:06:18.211Z,46.28
2023-04-03T20:08:21.077Z,46.26
2023-04-03T20:10:23.636Z,46.21
2023-04-03T20:12:26.255Z,46.13
2023-04-03T20:14:29.110Z,46.08
2023-04-03T20:16:31.725Z,46.02
2023-04-03T20:18:36.584Z,46.12
2023-04-03T20:20:42.041Z,46.09
2023-04-03T20:22:44.924Z,45.94
2023-04-03T20:24:47.473Z,45.81
2023-04-03T20:26:51.150Z,45.93
2023-04-03T20:28:54.658Z,45.75
2023-04-03T20:30:57.204Z,45.61
2023-04-03T20:33:00.018Z,45.76
2023-04-03T20:35:04.844Z,45.71
2023-04-03T20:37:08.461Z,45.67
2023-04-03T20:39:11.077Z,45.44
2023-04-03T20:41:13.693Z,45.44
2023-04-03T20:43:17.003Z,45.45
2023-04-03T20:45:21.367Z,45.58
2023-04-03T20:47:24.244Z,44.99
2023-04-03T20:49:26.867Z,45.11
2023-04-03T20:51:31.363Z,45.11
2023-04-03T20:53:33.884Z,45.00
2023-04-03T20:55:37.266Z,44.68
2023-04-03T20:57:39.821Z,44.86
2023-04-03T20:59:43.816Z,45.05
2023-04-03T21:01:46.901Z,45.21
2023-04-03T21:03:52.429Z,45.28
2023-04-03T21:05:59.654Z,45.26
2023-04-03T21:08:39.957Z,45.39
2023-04-03T21:11:23.552Z,45.58
2023-04-03T21:14:03.410Z,45.45
2023-04-03T21:16:05.730Z,45.31
2023-04-03T21:18:42.413Z,45.38
2023-04-03T21:20:47.690Z,45.32
2023-04-03T21:22:50.369Z,45.35
2023-04-03T21:24:52.970Z,45.29
2023-04-03T21:26:58.058Z,45.58
2023-04-03T21:29:01.568Z,45.49
2023-04-03T21:31:04.212Z,45.59
2023-04-03T21:33:06.819Z,45.87
2023-04-03T21:35:10.798Z,45.77
2023-04-03T21:37:14.373Z,45.93
2023-04-03T21:39:17.584Z,45.93
2023-04-03T21:41:21.553Z,45.60
2023-04-03T21:43:24.098Z,45.44
2023-04-03T21:45:26.760Z,45.51
2023-04-03T21:47:29.380Z,45.55
2023-04-03T21:49:31.954Z,45.51
2023-04-03T21:51:36.651Z,45.54
2023-04-03T21:53:39.962Z,45.64
2023-04-03T21:55:42.656Z,45.67
2023-04-03T21:57:52.112Z,45.35
2023-04-03T21:59:54.696Z,45.73
2023-04-03T22:01:57.429Z,45.73
2023-04-03T22:04:02.483Z,45.73
2023-04-03T22:06:05.550Z,45.67
2023-04-03T22:08:09.436Z,45.75
2023-04-03T22:10:12.250Z,45.83
2023-04-03T22:12:14.774Z,45.99
2023-04-03T22:14:18.031Z,46.26
2023-04-03T22:16:20.977Z,46.19
2023-04-03T22:18:23.648Z,46.14
2023-04-03T22:20:26.383Z,46.44
2023-04-03T22:22:28.924Z,46.59
2023-04-03T22:24:32.809Z,46.46
2023-04-03T22:26:36.289Z,46.75
2023-04-03T22:28:39.974Z,46.84
2023-04-03T22:30:42.634Z,46.68
2023-04-03T22:32:46.038Z,46.93
2023-04-03T22:34:48.630Z,46.96
2023-04-03T22:36:51.151Z,46.77
2023-04-03T22:38:53.810Z,46.87
2023-04-03T22:41:02.189Z,46.96
2023-04-03T22:43:04.750Z,47.04
2023-04-03T22:45:08.426Z,47.04
2023-04-03T22:47:11.244Z,47.08
2023-04-03T22:49:14.077Z,47.21
2023-04-03T22:51:16.648Z,47.31
2023-04-03T22:53:20.028Z,47.56
2023-04-03T22:55:24.374Z,47.35
2023-04-03T22:57:28.271Z,47.63
2023-04-03T22:59:31.218Z,47.64
2023-04-03T23:01:33.882Z,47.85
2023-04-03T23:03:38.274Z,47.59
2023-04-03T23:05:41.601Z,48.14
2023-04-03T23:07:44.128Z,48.03
2023-04-03T23:09:46.685Z,48.05
2023-04-03T23:11:49.216Z,48.06
2023-04-03T23:13:53.091Z,48.07
2023-04-03T23:15:55.903Z,47.90
2023-04-03T23:17:58.529Z,47.99
2023-04-03T23:20:01.139Z,47.96
2023-04-03T23:22:03.715Z,47.88
2023-04-03T23:24:06.883Z,47.56
2023-04-03T23:26:10.113Z,47.47
2023-04-03T23:28:12.679Z,47.20
2023-04-03T23:30:16.574Z,46.20
2023-04-03T23:32:19.159Z,45.48
2023-04-03T23:34:21.723Z,45.14
2023-04-03T23:36:24.356Z,45.17
2023-04-03T23:38:27.767Z,44.51
2023-04-03T23:40:30.350Z,44.27
2023-04-03T23:42:32.870Z,44.46
2023-04-03T23:44:35.506Z,44.06
2023-04-03T23:46:39.425Z,43.96
2023-04-03T23:48:41.956Z,44.12
2023-04-03T23:50:44.691Z,43.88
2023-04-03T23:52:47.317Z,43.76
2023-04-03T23:54:50.511Z,43.70
2023-04-03T23:56:53.056Z,43.52
2023-04-03T23:58:55.674Z,43.64
